Stowe, Vermont
Current Conditions -  °F | °C
As of 8:18 AM on Saturday 25 Oct 2014 (Local Time) from KMVL Reporting Station
Few Clouds Few Clouds  
Wind Chill: 33°   Ceiling: Unl
Heat Index: 33°   Visibility: 10mi
Dew Point: 33°   Wind: 0mph
Humidity: 100%   Direction: NA
Pressure: 29.77"   Gusts: NA
Location:  44.47°N, 72.68°W
Report Text: KMVL 251218Z AUTO 00000KT 10SM FEW001 01/01 A2977 RMK AO2 T00060006
Loading
Personal Weather Stations






























Interactive Weather Map New forecast layout! Learn more

10-Day Weather Forecast

Advertisements
Track Severe Weather on mobile